sensor_id;sensor_type;location;lat;lon;timestamp;P1;durP1;ratioP1;P2;durP2;ratioP2
23078;SDS011;11707;50.830;4.364;2023-04-29T00:01:19;59.05;;;33.22;;
23078;SDS011;11707;50.830;4.364;2023-04-29T00:03:44;63.72;;;35.10;;
23078;SDS011;11707;50.830;4.364;2023-04-29T00:06:10;59.08;;;34.10;;
23078;SDS011;11707;50.830;4.364;2023-04-29T00:08:36;58.72;;;32.22;;
23078;SDS011;11707;50.830;4.364;2023-04-29T00:11:02;57.55;;;32.53;;
23078;SDS011;11707;50.830;4.364;2023-04-29T00:13:27;54.53;;;32.00;;
23078;SDS011;11707;50.830;4.364;2023-04-29T00:15:53;59.17;;;32.67;;
23078;SDS011;11707;50.830;4.364;2023-04-29T00:18:19;48.35;;;29.52;;
23078;SDS011;11707;50.830;4.364;2023-04-29T00:20:47;63.63;;;34.45;;
23078;SDS011;11707;50.830;4.364;2023-04-29T00:23:12;49.80;;;27.52;;
23078;SDS011;11707;50.830;4.364;2023-04-29T00:25:40;61.20;;;32.88;;
23078;SDS011;11707;50.830;4.364;2023-04-29T00:28:12;55.08;;;30.17;;
23078;SDS011;11707;50.830;4.364;2023-04-29T00:30:39;52.83;;;30.67;;
23078;SDS011;11707;50.830;4.364;2023-04-29T00:33:05;48.55;;;28.80;;
23078;SDS011;11707;50.830;4.364;2023-04-29T00:35:31;47.17;;;28.38;;
23078;SDS011;11707;50.830;4.364;2023-04-29T00:37:57;55.20;;;30.30;;
23078;SDS011;11707;50.830;4.364;2023-04-29T00:40:22;51.60;;;29.25;;
23078;SDS011;11707;50.830;4.364;2023-04-29T00:42:48;45.50;;;27.35;;
23078;SDS011;11707;50.830;4.364;2023-04-29T00:45:14;48.63;;;28.15;;
23078;SDS011;11707;50.830;4.364;2023-04-29T00:47:40;49.08;;;29.60;;
23078;SDS011;11707;50.830;4.364;2023-04-29T00:50:08;47.58;;;28.48;;
23078;SDS011;11707;50.830;4.364;2023-04-29T00:52:36;48.40;;;29.48;;
23078;SDS011;11707;50.830;4.364;2023-04-29T00:55:04;46.33;;;28.13;;
23078;SDS011;11707;50.830;4.364;2023-04-29T00:57:33;53.08;;;27.58;;
23078;SDS011;11707;50.830;4.364;2023-04-29T01:00:01;44.40;;;25.08;;
23078;SDS011;11707;50.830;4.364;2023-04-29T01:02:28;46.10;;;26.70;;
23078;SDS011;11707;50.830;4.364;2023-04-29T01:04:54;45.28;;;25.23;;
23078;SDS011;11707;50.830;4.364;2023-04-29T01:10:21;49.05;;;28.58;;
23078;SDS011;11707;50.830;4.364;2023-04-29T01:12:57;47.92;;;27.60;;
23078;SDS011;11707;50.830;4.364;2023-04-29T01:16:00;45.78;;;24.23;;
23078;SDS011;11707;50.830;4.364;2023-04-29T01:18:49;39.72;;;24.40;;
23078;SDS011;11707;50.830;4.364;2023-04-29T01:21:19;49.95;;;27.35;;
23078;SDS011;11707;50.830;4.364;2023-04-29T01:23:46;45.63;;;25.35;;
23078;SDS011;11707;50.830;4.364;2023-04-29T01:26:15;50.83;;;28.90;;
23078;SDS011;11707;50.830;4.364;2023-04-29T01:31:43;43.92;;;28.10;;
23078;SDS011;11707;50.830;4.364;2023-04-29T01:34:39;56.50;;;29.02;;
23078;SDS011;11707;50.830;4.364;2023-04-29T01:40:04;47.58;;;28.02;;
23078;SDS011;11707;50.830;4.364;2023-04-29T01:45:26;44.87;;;27.60;;
23078;SDS011;11707;50.830;4.364;2023-04-29T01:47:53;52.33;;;27.08;;
23078;SDS011;11707;50.830;4.364;2023-04-29T01:50:25;53.63;;;29.58;;
23078;SDS011;11707;50.830;4.364;2023-04-29T01:52:50;55.53;;;30.70;;
23078;SDS011;11707;50.830;4.364;2023-04-29T01:55:19;52.65;;;29.35;;
23078;SDS011;11707;50.830;4.364;2023-04-29T01:57:45;52.05;;;27.85;;
23078;SDS011;11707;50.830;4.364;2023-04-29T02:00:13;62.05;;;33.47;;
23078;SDS011;11707;50.830;4.364;2023-04-29T02:02:39;57.00;;;32.30;;
23078;SDS011;11707;50.830;4.364;2023-04-29T02:05:09;58.15;;;30.33;;
23078;SDS011;11707;50.830;4.364;2023-04-29T02:07:35;58.15;;;32.38;;
23078;SDS011;11707;50.830;4.364;2023-04-29T02:10:01;57.80;;;31.02;;
23078;SDS011;11707;50.830;4.364;2023-04-29T02:12:27;53.53;;;30.75;;
23078;SDS011;11707;50.830;4.364;2023-04-29T02:14:52;57.35;;;31.67;;
23078;SDS011;11707;50.830;4.364;2023-04-29T02:17:20;57.40;;;31.67;;
23078;SDS011;11707;50.830;4.364;2023-04-29T02:19:46;61.83;;;33.97;;
23078;SDS011;11707;50.830;4.364;2023-04-29T02:22:12;56.45;;;32.85;;
23078;SDS011;11707;50.830;4.364;2023-04-29T02:24:40;56.22;;;32.58;;
23078;SDS011;11707;50.830;4.364;2023-04-29T02:27:06;66.03;;;32.33;;
23078;SDS011;11707;50.830;4.364;2023-04-29T02:29:32;61.78;;;34.10;;
23078;SDS011;11707;50.830;4.364;2023-04-29T02:31:58;53.95;;;32.78;;
23078;SDS011;11707;50.830;4.364;2023-04-29T02:34:23;53.05;;;31.92;;
23078;SDS011;11707;50.830;4.364;2023-04-29T02:36:49;51.67;;;32.20;;
23078;SDS011;11707;50.830;4.364;2023-04-29T02:39:15;51.95;;;32.03;;
23078;SDS011;11707;50.830;4.364;2023-04-29T02:41:41;46.00;;;30.35;;
23078;SDS011;11707;50.830;4.364;2023-04-29T02:44:09;43.95;;;29.63;;
23078;SDS011;11707;50.830;4.364;2023-04-29T02:46:34;44.88;;;26.88;;
23078;SDS011;11707;50.830;4.364;2023-04-29T02:49:01;40.08;;;27.13;;
23078;SDS011;11707;50.830;4.364;2023-04-29T02:51:27;45.22;;;28.48;;
23078;SDS011;11707;50.830;4.364;2023-04-29T02:53:54;38.30;;;23.88;;
23078;SDS011;11707;50.830;4.364;2023-04-29T02:56:20;38.13;;;24.17;;
23078;SDS011;11707;50.830;4.364;2023-04-29T02:58:47;29.30;;;20.75;;
23078;SDS011;11707;50.830;4.364;2023-04-29T03:01:13;33.75;;;21.52;;
23078;SDS011;11707;50.830;4.364;2023-04-29T03:03:38;30.33;;;20.60;;
23078;SDS011;11707;50.830;4.364;2023-04-29T03:06:04;32.33;;;21.27;;
23078;SDS011;11707;50.830;4.364;2023-04-29T03:08:32;30.30;;;20.63;;
23078;SDS011;11707;50.830;4.364;2023-04-29T03:10:59;33.05;;;20.90;;
23078;SDS011;11707;50.830;4.364;2023-04-29T03:13:25;30.65;;;20.42;;
23078;SDS011;11707;50.830;4.364;2023-04-29T03:15:51;27.63;;;20.30;;
23078;SDS011;11707;50.830;4.364;2023-04-29T03:18:16;34.80;;;21.65;;
23078;SDS011;11707;50.830;4.364;2023-04-29T03:20:42;29.83;;;20.85;;
23078;SDS011;11707;50.830;4.364;2023-04-29T03:23:08;33.05;;;20.75;;
23078;SDS011;11707;50.830;4.364;2023-04-29T03:25:34;27.30;;;19.65;;
23078;SDS011;11707;50.830;4.364;2023-04-29T03:28:02;30.88;;;19.98;;
23078;SDS011;11707;50.830;4.364;2023-04-29T03:30:30;28.73;;;18.52;;
23078;SDS011;11707;50.830;4.364;2023-04-29T03:32:56;31.65;;;21.17;;
23078;SDS011;11707;50.830;4.364;2023-04-29T03:35:22;31.52;;;20.67;;
23078;SDS011;11707;50.830;4.364;2023-04-29T03:37:48;28.45;;;19.50;;
23078;SDS011;11707;50.830;4.364;2023-04-29T03:40:13;28.15;;;18.02;;
23078;SDS011;11707;50.830;4.364;2023-04-29T03:42:39;24.52;;;17.38;;
23078;SDS011;11707;50.830;4.364;2023-04-29T03:45:05;24.48;;;15.98;;
23078;SDS011;11707;50.830;4.364;2023-04-29T03:47:32;21.27;;;14.93;;
23078;SDS011;11707;50.830;4.364;2023-04-29T03:49:57;20.67;;;13.82;;
23078;SDS011;11707;50.830;4.364;2023-04-29T03:52:25;20.88;;;13.23;;
23078;SDS011;11707;50.830;4.364;2023-04-29T03:54:51;23.77;;;15.65;;
23078;SDS011;11707;50.830;4.364;2023-04-29T03:57:17;22.80;;;15.93;;
23078;SDS011;11707;50.830;4.364;2023-04-29T03:59:42;24.33;;;16.60;;
23078;SDS011;11707;50.830;4.364;2023-04-29T04:02:09;27.55;;;18.42;;
23078;SDS011;11707;50.830;4.364;2023-04-29T04:04:35;29.63;;;17.35;;
23078;SDS011;11707;50.830;4.364;2023-04-29T04:07:00;31.63;;;18.08;;
23078;SDS011;11707;50.830;4.364;2023-04-29T04:09:27;32.40;;;19.70;;
23078;SDS011;11707;50.830;4.364;2023-04-29T04:11:53;34.33;;;21.15;;
23078;SDS011;11707;50.830;4.364;2023-04-29T04:14:19;31.30;;;21.48;;
23078;SDS011;11707;50.830;4.364;2023-04-29T04:16:45;36.30;;;21.55;;
23078;SDS011;11707;50.830;4.364;2023-04-29T04:19:11;36.47;;;23.10;;
23078;SDS011;11707;50.830;4.364;2023-04-29T04:21:36;36.20;;;23.40;;
23078;SDS011;11707;50.830;4.364;2023-04-29T04:24:02;37.78;;;22.98;;
23078;SDS011;11707;50.830;4.364;2023-04-29T04:26:30;39.53;;;23.60;;
23078;SDS011;11707;50.830;4.364;2023-04-29T04:28:58;34.88;;;21.38;;
23078;SDS011;11707;50.830;4.364;2023-04-29T04:31:26;35.50;;;22.55;;
23078;SDS011;11707;50.830;4.364;2023-04-29T04:33:52;41.17;;;23.55;;
23078;SDS011;11707;50.830;4.364;2023-04-29T04:36:21;34.05;;;22.90;;
23078;SDS011;11707;50.830;4.364;2023-04-29T04:38:47;39.20;;;23.88;;
23078;SDS011;11707;50.830;4.364;2023-04-29T04:41:13;39.53;;;23.70;;
23078;SDS011;11707;50.830;4.364;2023-04-29T04:43:39;39.88;;;24.55;;
23078;SDS011;11707;50.830;4.364;2023-04-29T04:46:13;35.20;;;24.15;;
23078;SDS011;11707;50.830;4.364;2023-04-29T04:48:42;33.33;;;23.40;;
23078;SDS011;11707;50.830;4.364;2023-04-29T04:51:08;44.15;;;25.30;;
23078;SDS011;11707;50.830;4.364;2023-04-29T04:53:34;41.67;;;24.98;;
23078;SDS011;11707;50.830;4.364;2023-04-29T04:56:01;39.33;;;25.08;;
23078;SDS011;11707;50.830;4.364;2023-04-29T04:58:30;42.42;;;25.90;;
23078;SDS011;11707;50.830;4.364;2023-04-29T05:00:56;38.92;;;25.00;;
23078;SDS011;11707;50.830;4.364;2023-04-29T05:03:23;42.30;;;24.58;;
23078;SDS011;11707;50.830;4.364;2023-04-29T05:05:52;43.95;;;24.65;;
23078;SDS011;11707;50.830;4.364;2023-04-29T05:08:18;41.83;;;24.73;;
23078;SDS011;11707;50.830;4.364;2023-04-29T05:10:44;36.88;;;24.77;;
23078;SDS011;11707;50.830;4.364;2023-04-29T05:13:12;39.40;;;24.90;;
23078;SDS011;11707;50.830;4.364;2023-04-29T05:15:38;33.45;;;21.10;;
23078;SDS011;11707;50.830;4.364;2023-04-29T05:18:03;41.95;;;23.95;;
23078;SDS011;11707;50.830;4.364;2023-04-29T05:20:29;38.88;;;22.95;;
23078;SDS011;11707;50.830;4.364;2023-04-29T05:22:55;31.77;;;21.08;;
23078;SDS011;11707;50.830;4.364;2023-04-29T05:25:20;33.50;;;21.05;;
23078;SDS011;11707;50.830;4.364;2023-04-29T05:27:46;28.50;;;20.23;;
23078;SDS011;11707;50.830;4.364;2023-04-29T05:30:14;34.22;;;21.73;;
23078;SDS011;11707;50.830;4.364;2023-04-29T05:32:40;35.33;;;22.48;;
23078;SDS011;11707;50.830;4.364;2023-04-29T05:35:06;33.95;;;21.80;;
23078;SDS011;11707;50.830;4.364;2023-04-29T05:37:32;32.53;;;21.27;;
23078;SDS011;11707;50.830;4.364;2023-04-29T05:39:57;26.10;;;19.40;;
23078;SDS011;11707;50.830;4.364;2023-04-29T05:42:23;38.58;;;21.65;;
23078;SDS011;11707;50.830;4.364;2023-04-29T05:44:51;33.50;;;20.10;;
23078;SDS011;11707;50.830;4.364;2023-04-29T05:47:17;29.45;;;19.30;;
23078;SDS011;11707;50.830;4.364;2023-04-29T05:49:45;31.90;;;20.95;;
23078;SDS011;11707;50.830;4.364;2023-04-29T05:52:11;30.10;;;19.27;;
23078;SDS011;11707;50.830;4.364;2023-04-29T05:54:39;32.33;;;20.50;;
23078;SDS011;11707;50.830;4.364;2023-04-29T05:57:05;29.63;;;19.52;;
23078;SDS011;11707;50.830;4.364;2023-04-29T05:59:31;30.80;;;20.00;;
23078;SDS011;11707;50.830;4.364;2023-04-29T06:01:59;29.50;;;19.25;;
23078;SDS011;11707;50.830;4.364;2023-04-29T06:04:25;27.17;;;18.50;;
23078;SDS011;11707;50.830;4.364;2023-04-29T06:06:51;26.92;;;17.20;;
23078;SDS011;11707;50.830;4.364;2023-04-29T06:09:18;32.60;;;18.05;;
23078;SDS011;11707;50.830;4.364;2023-04-29T06:11:45;25.42;;;18.45;;
23078;SDS011;11707;50.830;4.364;2023-04-29T06:14:11;28.25;;;17.95;;
23078;SDS011;11707;50.830;4.364;2023-04-29T06:16:37;28.55;;;18.13;;
23078;SDS011;11707;50.830;4.364;2023-04-29T06:19:03;32.63;;;18.15;;
23078;SDS011;11707;50.830;4.364;2023-04-29T06:21:32;32.28;;;16.73;;
23078;SDS011;11707;50.830;4.364;2023-04-29T06:23:57;23.00;;;15.80;;
23078;SDS011;11707;50.830;4.364;2023-04-29T06:26:23;21.63;;;15.30;;
23078;SDS011;11707;50.830;4.364;2023-04-29T06:28:49;24.02;;;16.42;;
23078;SDS011;11707;50.830;4.364;2023-04-29T06:31:17;27.20;;;16.10;;
23078;SDS011;11707;50.830;4.364;2023-04-29T06:33:45;24.80;;;15.90;;
23078;SDS011;11707;50.830;4.364;2023-04-29T06:36:11;26.42;;;17.00;;
23078;SDS011;11707;50.830;4.364;2023-04-29T06:38:37;26.35;;;17.30;;
23078;SDS011;11707;50.830;4.364;2023-04-29T06:41:02;29.85;;;18.20;;
23078;SDS011;11707;50.830;4.364;2023-04-29T06:43:28;26.83;;;18.73;;
23078;SDS011;11707;50.830;4.364;2023-04-29T06:45:55;31.20;;;21.77;;
23078;SDS011;11707;50.830;4.364;2023-04-29T06:48:23;35.22;;;22.98;;
23078;SDS011;11707;50.830;4.364;2023-04-29T06:50:51;36.63;;;22.70;;
23078;SDS011;11707;50.830;4.364;2023-04-29T06:53:21;32.05;;;23.77;;
23078;SDS011;11707;50.830;4.364;2023-04-29T06:55:47;27.73;;;21.23;;
23078;SDS011;11707;50.830;4.364;2023-04-29T06:58:17;35.70;;;22.35;;
23078;SDS011;11707;50.830;4.364;2023-04-29T07:00:43;32.45;;;22.58;;
23078;SDS011;11707;50.830;4.364;2023-04-29T07:03:10;29.70;;;21.65;;
23078;SDS011;11707;50.830;4.364;2023-04-29T07:05:36;33.97;;;22.48;;
23078;SDS011;11707;50.830;4.364;2023-04-29T07:08:06;31.38;;;23.63;;
23078;SDS011;11707;50.830;4.364;2023-04-29T07:10:32;35.38;;;23.02;;
23078;SDS011;11707;50.830;4.364;2023-04-29T07:13:00;38.20;;;25.33;;
23078;SDS011;11707;50.830;4.364;2023-04-29T07:15:29;33.95;;;23.77;;
23078;SDS011;11707;50.830;4.364;2023-04-29T07:17:59;37.55;;;25.67;;
23078;SDS011;11707;50.830;4.364;2023-04-29T07:20:27;34.55;;;25.27;;
23078;SDS011;11707;50.830;4.364;2023-04-29T07:22:52;34.45;;;24.20;;
23078;SDS011;11707;50.830;4.364;2023-04-29T07:25:18;36.08;;;26.13;;
23078;SDS011;11707;50.830;4.364;2023-04-29T07:27:44;34.67;;;25.48;;
23078;SDS011;11707;50.830;4.364;2023-04-29T07:30:14;42.53;;;25.20;;
23078;SDS011;11707;50.830;4.364;2023-04-29T07:32:40;38.38;;;26.85;;
23078;SDS011;11707;50.830;4.364;2023-04-29T07:35:05;40.83;;;28.35;;
23078;SDS011;11707;50.830;4.364;2023-04-29T07:37:34;40.95;;;27.20;;
23078;SDS011;11707;50.830;4.364;2023-04-29T07:40:03;35.95;;;27.48;;
23078;SDS011;11707;50.830;4.364;2023-04-29T07:42:29;36.72;;;25.83;;
23078;SDS011;11707;50.830;4.364;2023-04-29T07:44:55;39.78;;;26.73;;
23078;SDS011;11707;50.830;4.364;2023-04-29T07:47:23;44.80;;;27.88;;
23078;SDS011;11707;50.830;4.364;2023-04-29T07:49:55;45.17;;;27.90;;
23078;SDS011;11707;50.830;4.364;2023-04-29T07:52:21;37.00;;;27.17;;
23078;SDS011;11707;50.830;4.364;2023-04-29T07:54:49;33.45;;;26.17;;
23078;SDS011;11707;50.830;4.364;2023-04-29T07:57:15;38.65;;;27.80;;
23078;SDS011;11707;50.830;4.364;2023-04-29T07:59:40;34.72;;;28.02;;
23078;SDS011;11707;50.830;4.364;2023-04-29T08:02:06;50.50;;;30.85;;
23078;SDS011;11707;50.830;4.364;2023-04-29T08:04:31;43.58;;;29.80;;
23078;SDS011;11707;50.830;4.364;2023-04-29T08:07:03;42.20;;;27.25;;
23078;SDS011;11707;50.830;4.364;2023-04-29T08:09:29;39.47;;;25.50;;
23078;SDS011;11707;50.830;4.364;2023-04-29T08:11:54;41.47;;;25.77;;
23078;SDS011;11707;50.830;4.364;2023-04-29T08:14:20;37.58;;;24.83;;
23078;SDS011;11707;50.830;4.364;2023-04-29T08:16:50;34.10;;;24.67;;
23078;SDS011;11707;50.830;4.364;2023-04-29T08:19:16;42.03;;;25.92;;
23078;SDS011;11707;50.830;4.364;2023-04-29T08:21:42;39.53;;;25.88;;
23078;SDS011;11707;50.830;4.364;2023-04-29T08:24:07;33.88;;;25.00;;
23078;SDS011;11707;50.830;4.364;2023-04-29T08:26:33;36.60;;;25.55;;
23078;SDS011;11707;50.830;4.364;2023-04-29T08:28:59;30.77;;;24.60;;
23078;SDS011;11707;50.830;4.364;2023-04-29T08:31:24;36.42;;;25.10;;
23078;SDS011;11707;50.830;4.364;2023-04-29T08:33:50;30.73;;;22.25;;
23078;SDS011;11707;50.830;4.364;2023-04-29T08:36:16;38.72;;;26.65;;
23078;SDS011;11707;50.830;4.364;2023-04-29T08:38:41;36.97;;;24.20;;
23078;SDS011;11707;50.830;4.364;2023-04-29T08:41:07;32.53;;;23.02;;
23078;SDS011;11707;50.830;4.364;2023-04-29T08:43:38;34.53;;;25.00;;
23078;SDS011;11707;50.830;4.364;2023-04-29T08:46:09;29.92;;;21.52;;
23078;SDS011;11707;50.830;4.364;2023-04-29T08:48:42;27.92;;;21.20;;
23078;SDS011;11707;50.830;4.364;2023-04-29T08:51:10;35.45;;;22.40;;
23078;SDS011;11707;50.830;4.364;2023-04-29T08:53:36;34.47;;;22.95;;
23078;SDS011;11707;50.830;4.364;2023-04-29T08:56:03;33.83;;;22.23;;
23078;SDS011;11707;50.830;4.364;2023-04-29T08:58:44;32.17;;;22.48;;
23078;SDS011;11707;50.830;4.364;2023-04-29T09:01:10;31.27;;;22.13;;
23078;SDS011;11707;50.830;4.364;2023-04-29T09:03:42;31.45;;;21.92;;
23078;SDS011;11707;50.830;4.364;2023-04-29T09:06:15;32.60;;;20.60;;
23078;SDS011;11707;50.830;4.364;2023-04-29T09:08:43;30.65;;;21.42;;
23078;SDS011;11707;50.830;4.364;2023-04-29T09:11:09;32.83;;;21.15;;
23078;SDS011;11707;50.830;4.364;2023-04-29T09:13:38;29.85;;;19.88;;
23078;SDS011;11707;50.830;4.364;2023-04-29T09:16:09;26.08;;;20.15;;
23078;SDS011;11707;50.830;4.364;2023-04-29T09:18:44;26.90;;;19.05;;
23078;SDS011;11707;50.830;4.364;2023-04-29T09:21:18;29.67;;;18.77;;
23078;SDS011;11707;50.830;4.364;2023-04-29T09:23:54;30.35;;;20.83;;
23078;SDS011;11707;50.830;4.364;2023-04-29T09:26:21;25.33;;;19.23;;
23078;SDS011;11707;50.830;4.364;2023-04-29T09:31:39;29.75;;;20.05;;
23078;SDS011;11707;50.830;4.364;2023-04-29T09:34:05;31.50;;;20.58;;
23078;SDS011;11707;50.830;4.364;2023-04-29T09:36:41;29.25;;;21.05;;
23078;SDS011;11707;50.830;4.364;2023-04-29T09:39:14;29.75;;;21.73;;
23078;SDS011;11707;50.830;4.364;2023-04-29T09:44:25;30.67;;;21.23;;
23078;SDS011;11707;50.830;4.364;2023-04-29T09:46:59;25.83;;;19.73;;
23078;SDS011;11707;50.830;4.364;2023-04-29T09:49:27;28.55;;;20.80;;
23078;SDS011;11707;50.830;4.364;2023-04-29T09:52:00;33.25;;;20.02;;
23078;SDS011;11707;50.830;4.364;2023-04-29T09:54:33;31.33;;;20.65;;
23078;SDS011;11707;50.830;4.364;2023-04-29T09:57:01;28.08;;;20.42;;
23078;SDS011;11707;50.830;4.364;2023-04-29T09:59:30;28.33;;;20.15;;
23078;SDS011;11707;50.830;4.364;2023-04-29T10:01:58;34.33;;;22.52;;
23078;SDS011;11707;50.830;4.364;2023-04-29T10:04:25;27.63;;;20.08;;
23078;SDS011;11707;50.830;4.364;2023-04-29T10:06:53;33.45;;;21.77;;
23078;SDS011;11707;50.830;4.364;2023-04-29T10:09:22;26.40;;;20.08;;
23078;SDS011;11707;50.830;4.364;2023-04-29T10:11:51;25.10;;;20.38;;
23078;SDS011;11707;50.830;4.364;2023-04-29T10:14:18;30.45;;;20.50;;
23078;SDS011;11707;50.830;4.364;2023-04-29T10:16:48;26.88;;;20.00;;
23078;SDS011;11707;50.830;4.364;2023-04-29T10:19:33;30.45;;;19.63;;
23078;SDS011;11707;50.830;4.364;2023-04-29T10:22:06;25.75;;;18.15;;
23078;SDS011;11707;50.830;4.364;2023-04-29T10:24:37;28.35;;;20.17;;
23078;SDS011;11707;50.830;4.364;2023-04-29T10:27:06;27.70;;;21.40;;
23078;SDS011;11707;50.830;4.364;2023-04-29T10:29:36;28.70;;;18.38;;
23078;SDS011;11707;50.830;4.364;2023-04-29T10:32:04;25.80;;;17.70;;
23078;SDS011;11707;50.830;4.364;2023-04-29T10:34:33;21.70;;;16.73;;
23078;SDS011;11707;50.830;4.364;2023-04-29T10:37:04;22.60;;;16.63;;
23078;SDS011;11707;50.830;4.364;2023-04-29T10:39:35;24.17;;;17.27;;
23078;SDS011;11707;50.830;4.364;2023-04-29T10:42:15;20.15;;;15.90;;
23078;SDS011;11707;50.830;4.364;2023-04-29T10:53:19;21.10;;;16.52;;
23078;SDS011;11707;50.830;4.364;2023-04-29T10:55:52;21.80;;;16.60;;
23078;SDS011;11707;50.830;4.364;2023-04-29T11:01:16;28.60;;;17.20;;
23078;SDS011;11707;50.830;4.364;2023-04-29T11:09:01;23.23;;;16.83;;
23078;SDS011;11707;50.830;4.364;2023-04-29T11:14:13;19.65;;;15.35;;
23078;SDS011;11707;50.830;4.364;2023-04-29T11:16:55;18.15;;;14.45;;
23078;SDS011;11707;50.830;4.364;2023-04-29T11:19:44;18.83;;;15.30;;
23078;SDS011;11707;50.830;4.364;2023-04-29T11:22:14;20.55;;;15.30;;
23078;SDS011;11707;50.830;4.364;2023-04-29T11:27:38;20.92;;;15.80;;
23078;SDS011;11707;50.830;4.364;2023-04-29T11:30:05;21.65;;;14.88;;
23078;SDS011;11707;50.830;4.364;2023-04-29T11:32:39;20.63;;;15.00;;
23078;SDS011;11707;50.830;4.364;2023-04-29T11:35:10;17.58;;;14.30;;
23078;SDS011;11707;50.830;4.364;2023-04-29T11:37:39;20.05;;;13.38;;
23078;SDS011;11707;50.830;4.364;2023-04-29T11:40:06;17.30;;;13.13;;
23078;SDS011;11707;50.830;4.364;2023-04-29T11:42:33;21.10;;;13.60;;
23078;SDS011;11707;50.830;4.364;2023-04-29T11:45:03;16.70;;;13.70;;
23078;SDS011;11707;50.830;4.364;2023-04-29T11:47:29;16.23;;;13.63;;
23078;SDS011;11707;50.830;4.364;2023-04-29T11:50:02;21.15;;;14.35;;
23078;SDS011;11707;50.830;4.364;2023-04-29T11:52:28;16.20;;;12.32;;
23078;SDS011;11707;50.830;4.364;2023-04-29T11:54:53;21.45;;;15.45;;
23078;SDS011;11707;50.830;4.364;2023-04-29T11:57:21;14.93;;;11.68;;
23078;SDS011;11707;50.830;4.364;2023-04-29T11:59:47;18.60;;;11.40;;
23078;SDS011;11707;50.830;4.364;2023-04-29T12:02:15;17.52;;;11.57;;
23078;SDS011;11707;50.830;4.364;2023-04-29T12:04:45;14.57;;;11.80;;
23078;SDS011;11707;50.830;4.364;2023-04-29T12:07:13;15.48;;;12.07;;
23078;SDS011;11707;50.830;4.364;2023-04-29T12:09:41;19.80;;;12.93;;
23078;SDS011;11707;50.830;4.364;2023-04-29T12:12:08;19.75;;;14.73;;
23078;SDS011;11707;50.830;4.364;2023-04-29T12:14:34;19.77;;;15.23;;
23078;SDS011;11707;50.830;4.364;2023-04-29T12:17:00;21.02;;;14.38;;
23078;SDS011;11707;50.830;4.364;2023-04-29T12:19:26;18.13;;;13.98;;
23078;SDS011;11707;50.830;4.364;2023-04-29T12:21:52;23.60;;;14.65;;
23078;SDS011;11707;50.830;4.364;2023-04-29T12:24:19;19.58;;;14.93;;
23078;SDS011;11707;50.830;4.364;2023-04-29T12:26:48;20.77;;;14.45;;
23078;SDS011;11707;50.830;4.364;2023-04-29T12:29:13;25.45;;;15.80;;
23078;SDS011;11707;50.830;4.364;2023-04-29T12:31:39;22.15;;;16.60;;
23078;SDS011;11707;50.830;4.364;2023-04-29T12:34:06;19.13;;;14.80;;
23078;SDS011;11707;50.830;4.364;2023-04-29T12:36:32;19.55;;;13.75;;
23078;SDS011;11707;50.830;4.364;2023-04-29T12:39:01;16.88;;;13.40;;
23078;SDS011;11707;50.830;4.364;2023-04-29T12:44:02;17.90;;;14.85;;
23078;SDS011;11707;50.830;4.364;2023-04-29T12:46:33;17.35;;;13.27;;
23078;SDS011;11707;50.830;4.364;2023-04-29T12:49:01;24.10;;;11.75;;
23078;SDS011;11707;50.830;4.364;2023-04-29T12:51:31;15.98;;;10.88;;
23078;SDS011;11707;50.830;4.364;2023-04-29T12:54:00;15.00;;;10.98;;
23078;SDS011;11707;50.830;4.364;2023-04-29T12:56:28;15.18;;;11.43;;
23078;SDS011;11707;50.830;4.364;2023-04-29T12:58:54;14.95;;;10.15;;
23078;SDS011;11707;50.830;4.364;2023-04-29T13:01:20;12.95;;;10.02;;
23078;SDS011;11707;50.830;4.364;2023-04-29T13:03:48;11.93;;;10.10;;
23078;SDS011;11707;50.830;4.364;2023-04-29T13:06:16;14.45;;;9.85;;
23078;SDS011;11707;50.830;4.364;2023-04-29T13:08:42;14.50;;;9.75;;
23078;SDS011;11707;50.830;4.364;2023-04-29T13:11:07;15.77;;;10.32;;
23078;SDS011;11707;50.830;4.364;2023-04-29T13:13:39;13.73;;;10.05;;
23078;SDS011;11707;50.830;4.364;2023-04-29T13:16:05;14.18;;;10.45;;
23078;SDS011;11707;50.830;4.364;2023-04-29T13:18:31;14.82;;;11.30;;
23078;SDS011;11707;50.830;4.364;2023-04-29T13:20:57;14.25;;;10.30;;
23078;SDS011;11707;50.830;4.364;2023-04-29T13:23:23;14.23;;;9.40;;
23078;SDS011;11707;50.830;4.364;2023-04-29T13:25:49;12.38;;;10.07;;
23078;SDS011;11707;50.830;4.364;2023-04-29T13:28:15;12.93;;;9.20;;
23078;SDS011;11707;50.830;4.364;2023-04-29T13:30:43;13.40;;;10.25;;
23078;SDS011;11707;50.830;4.364;2023-04-29T13:33:08;12.02;;;9.27;;
23078;SDS011;11707;50.830;4.364;2023-04-29T13:35:34;14.30;;;9.63;;
23078;SDS011;11707;50.830;4.364;2023-04-29T13:38:02;16.60;;;9.65;;
23078;SDS011;11707;50.830;4.364;2023-04-29T13:40:28;12.77;;;9.43;;
23078;SDS011;11707;50.830;4.364;2023-04-29T13:42:53;12.10;;;8.88;;
23078;SDS011;11707;50.830;4.364;2023-04-29T13:45:24;12.68;;;8.25;;
23078;SDS011;11707;50.830;4.364;2023-04-29T13:47:52;11.00;;;8.27;;
23078;SDS011;11707;50.830;4.364;2023-04-29T13:50:18;11.90;;;8.75;;
23078;SDS011;11707;50.830;4.364;2023-04-29T13:52:46;12.88;;;9.63;;
23078;SDS011;11707;50.830;4.364;2023-04-29T13:55:12;11.75;;;9.85;;
23078;SDS011;11707;50.830;4.364;2023-04-29T13:57:38;11.82;;;9.07;;
23078;SDS011;11707;50.830;4.364;2023-04-29T14:00:04;12.35;;;10.20;;
23078;SDS011;11707;50.830;4.364;2023-04-29T14:02:33;14.13;;;10.35;;
23078;SDS011;11707;50.830;4.364;2023-04-29T14:04:58;15.57;;;11.52;;
23078;SDS011;11707;50.830;4.364;2023-04-29T14:07:26;14.68;;;11.45;;
23078;SDS011;11707;50.830;4.364;2023-04-29T14:09:52;14.82;;;10.75;;
23078;SDS011;11707;50.830;4.364;2023-04-29T14:12:18;11.20;;;9.93;;
23078;SDS011;11707;50.830;4.364;2023-04-29T14:14:44;12.90;;;11.15;;
23078;SDS011;11707;50.830;4.364;2023-04-29T14:17:12;14.52;;;11.10;;
23078;SDS011;11707;50.830;4.364;2023-04-29T14:19:38;13.18;;;9.93;;
23078;SDS011;11707;50.830;4.364;2023-04-29T14:22:04;16.40;;;11.48;;
23078;SDS011;11707;50.830;4.364;2023-04-29T14:24:29;12.75;;;11.43;;
23078;SDS011;11707;50.830;4.364;2023-04-29T14:26:55;15.18;;;11.65;;
23078;SDS011;11707;50.830;4.364;2023-04-29T14:29:26;14.40;;;11.43;;
23078;SDS011;11707;50.830;4.364;2023-04-29T14:31:51;13.30;;;10.30;;
23078;SDS011;11707;50.830;4.364;2023-04-29T14:34:17;12.20;;;9.18;;
23078;SDS011;11707;50.830;4.364;2023-04-29T14:36:45;10.88;;;9.70;;
23078;SDS011;11707;50.830;4.364;2023-04-29T14:39:11;11.13;;;8.48;;
23078;SDS011;11707;50.830;4.364;2023-04-29T14:41:37;13.20;;;9.63;;
23078;SDS011;11707;50.830;4.364;2023-04-29T14:44:03;16.98;;;10.23;;
23078;SDS011;11707;50.830;4.364;2023-04-29T14:46:30;14.43;;;10.25;;
23078;SDS011;11707;50.830;4.364;2023-04-29T14:48:57;11.25;;;8.85;;
23078;SDS011;11707;50.830;4.364;2023-04-29T14:51:25;13.25;;;9.20;;
23078;SDS011;11707;50.830;4.364;2023-04-29T14:53:52;16.13;;;10.15;;
23078;SDS011;11707;50.830;4.364;2023-04-29T14:56:17;12.88;;;9.70;;
23078;SDS011;11707;50.830;4.364;2023-04-29T14:58:43;12.10;;;8.95;;
23078;SDS011;11707;50.830;4.364;2023-04-29T15:01:09;11.88;;;9.75;;
23078;SDS011;11707;50.830;4.364;2023-04-29T15:03:34;13.38;;;9.93;;
23078;SDS011;11707;50.830;4.364;2023-04-29T15:06:05;12.80;;;9.20;;
23078;SDS011;11707;50.830;4.364;2023-04-29T15:08:31;13.18;;;9.35;;